Lewisville's Hourly Summary for Thursday, May 10, 2018
Hour Temp
(f)
RH
(%)
Solar Rad.
(MJ/m2)
Rainfall
(in)
Wind
(mph)
5/10/2018 12:00 AM 75 46 0 0 7.57
5/10/2018 1:00 AM 75 45 0 0 9.53
5/10/2018 2:00 AM 73 47 0 0 10.56
5/10/2018 3:00 AM 72 51 0 0 10.17
5/10/2018 4:00 AM 70 54 0 0 9.16
5/10/2018 5:00 AM 68 59 0 0 7.69
5/10/2018 6:00 AM 66 69 0.02 0 7.42
5/10/2018 7:00 AM 67 76 0.45 0 9.05
5/10/2018 8:00 AM 70 71 0.81 0 10.91
5/10/2018 9:00 AM 72 60 1.44 0 8.58
5/10/2018 10:00 AM 75 52 2.4 0 5.66
5/10/2018 11:00 AM 78 46 2.85 0 8.98
5/10/2018 12:00 PM 79 42 3.14 0 11.31
5/10/2018 1:00 PM 82 40 3.18 0 10.71
5/10/2018 2:00 PM 83 38 3.05 0 10.53
5/10/2018 3:00 PM 83 40 2.47 0 10.45
5/10/2018 4:00 PM 84 36 2.15 0 11.45
5/10/2018 5:00 PM 83 38 1.58 0 12.51
5/10/2018 6:00 PM 83 41 0.94 0 11.36
5/10/2018 7:00 PM 82 43 0.27 0 11.58
5/10/2018 8:00 PM 80 44 0.01 0 9.05
5/10/2018 9:00 PM 79 45 0 0 8.18
5/10/2018 10:00 PM 77 49 0 0 8.47
5/10/2018 11:00 PM 77 53 0 0 9.07
Data Summary 76 49 24.76 0.00 9.58